createdAt,value
2022-08-17T00:00:43.546Z,23.13
2022-08-17T00:03:15.064Z,23.13
2022-08-17T00:05:48.318Z,23.13
2022-08-17T00:08:20.258Z,23.09
2022-08-17T00:10:49.985Z,23.01
2022-08-17T00:13:25.715Z,22.97
2022-08-17T00:15:58.616Z,22.91
2022-08-17T00:19:05.718Z,22.85
2022-08-17T00:21:25.153Z,22.79
2022-08-17T00:23:54.906Z,22.77
2022-08-17T00:26:43.716Z,22.75
2022-08-17T00:29:16.484Z,22.70
2022-08-17T00:31:50.303Z,22.67
2022-08-17T00:34:19.298Z,22.65
2022-08-17T00:36:47.684Z,22.62
2022-08-17T00:39:16.052Z,22.55
2022-08-17T00:41:44.536Z,22.50
2022-08-17T00:44:13.134Z,22.39
2022-08-17T00:46:44.272Z,22.37
2022-08-17T00:49:15.920Z,22.31
2022-08-17T00:51:49.425Z,22.25
2022-08-17T00:54:23.841Z,22.20
2022-08-17T00:56:55.552Z,22.16
2022-08-17T00:59:30.824Z,22.13
2022-08-17T01:02:00.214Z,22.10
2022-08-17T01:04:31.366Z,22.06
2022-08-17T01:07:02.594Z,22.00
2022-08-17T01:09:32.387Z,21.96
2022-08-17T01:12:01.473Z,21.94
2022-08-17T01:14:29.913Z,21.93
2022-08-17T01:16:58.372Z,21.91
2022-08-17T01:19:32.056Z,21.86
2022-08-17T01:22:06.915Z,21.82
2022-08-17T01:24:39.138Z,21.78
2022-08-17T01:27:10.445Z,21.77
2022-08-17T01:29:43.157Z,21.71
2022-08-17T01:32:11.758Z,21.67
2022-08-17T01:34:43.942Z,21.61
2022-08-17T01:37:21.059Z,21.58
2022-08-17T01:39:55.347Z,21.55
2022-08-17T01:42:28.136Z,21.51
2022-08-17T01:45:00.367Z,21.47
2022-08-17T01:47:29.880Z,21.46
2022-08-17T01:49:59.478Z,21.46
2022-08-17T01:52:27.717Z,21.42
2022-08-17T01:54:58.353Z,21.37
2022-08-17T01:57:26.711Z,21.32
2022-08-17T01:59:55.119Z,21.24
2022-08-17T02:02:30.888Z,21.23
2022-08-17T02:05:00.505Z,21.18
2022-08-17T02:07:29.223Z,21.15
2022-08-17T02:09:59.510Z,21.07
2022-08-17T02:12:39.024Z,21.04
2022-08-17T02:15:12.429Z,21.02
2022-08-17T02:17:41.497Z,20.99
2022-08-17T02:20:11.517Z,20.97
2022-08-17T02:22:42.454Z,20.93
2022-08-17T02:25:17.296Z,20.89
2022-08-17T02:27:45.768Z,20.84
2022-08-17T02:31:00.194Z,20.85
2022-08-17T02:33:06.376Z,20.85
2022-08-17T02:35:38.218Z,20.84
2022-08-17T02:38:07.793Z,20.81
2022-08-17T02:40:40.610Z,20.77
2022-08-17T02:43:09.743Z,20.74
2022-08-17T02:45:38.369Z,20.72
2022-08-17T02:48:07.110Z,20.73
2022-08-17T02:50:35.519Z,20.72
2022-08-17T02:53:05.119Z,20.70
2022-08-17T02:55:40.197Z,20.69
2022-08-17T02:58:10.542Z,20.68
2022-08-17T03:00:42.411Z,20.67
2022-08-17T03:03:13.496Z,20.67
2022-08-17T03:05:41.944Z,20.64
2022-08-17T03:08:12.954Z,20.63
2022-08-17T03:10:43.385Z,20.62
2022-08-17T03:13:14.314Z,20.60
2022-08-17T03:15:45.850Z,20.58
2022-08-17T03:18:18.938Z,20.56
2022-08-17T03:20:55.734Z,20.48
2022-08-17T03:23:25.540Z,20.44
2022-08-17T03:25:56.287Z,20.40
2022-08-17T03:28:26.259Z,20.37
2022-08-17T03:30:54.722Z,20.32
2022-08-17T03:33:23.552Z,20.36
2022-08-17T03:35:52.385Z,20.37
2022-08-17T03:38:21.872Z,20.34
2022-08-17T03:40:56.361Z,20.27
2022-08-17T03:43:31.424Z,20.13
2022-08-17T03:46:29.040Z,20.11
2022-08-17T03:49:22.574Z,20.07
2022-08-17T03:52:08.761Z,20.02
2022-08-17T03:54:55.101Z,19.99
2022-08-17T03:57:23.572Z,20.00
2022-08-17T03:59:53.606Z,19.98
2022-08-17T04:02:25.876Z,19.95
2022-08-17T04:04:54.767Z,19.94
2022-08-17T04:07:26.185Z,19.86
2022-08-17T04:09:55.009Z,19.86
2022-08-17T04:12:25.031Z,19.84
2022-08-17T04:14:55.233Z,19.82
2022-08-17T04:17:27.790Z,19.76
2022-08-17T04:19:57.654Z,19.62
2022-08-17T04:22:33.179Z,19.55
2022-08-17T04:25:11.164Z,19.49
2022-08-17T04:27:39.657Z,19.53
2022-08-17T04:30:11.751Z,19.59
2022-08-17T04:33:05.366Z,19.67
2022-08-17T04:35:39.290Z,19.69
2022-08-17T04:38:09.733Z,19.59
2022-08-17T04:40:55.730Z,19.52
2022-08-17T04:43:27.092Z,19.56
2022-08-17T04:46:00.042Z,19.56
2022-08-17T04:48:35.388Z,19.57
2022-08-17T04:51:09.786Z,19.60
2022-08-17T04:53:39.981Z,19.61
2022-08-17T04:56:16.192Z,19.62
2022-08-17T04:58:49.717Z,19.62
2022-08-17T05:01:23.236Z,19.64
2022-08-17T05:03:53.225Z,19.61
2022-08-17T05:06:22.162Z,19.58
2022-08-17T05:08:50.701Z,19.60
2022-08-17T05:11:19.597Z,19.40
2022-08-17T05:13:50.057Z,19.19
2022-08-17T05:16:21.164Z,19.24
2022-08-17T05:18:49.850Z,19.35
2022-08-17T05:21:19.920Z,19.42
2022-08-17T05:23:52.673Z,19.48
2022-08-17T05:26:26.310Z,19.56
2022-08-17T05:28:58.473Z,19.65
2022-08-17T05:31:30.986Z,19.68
2022-08-17T05:33:59.640Z,19.72
2022-08-17T05:36:43.543Z,19.67
2022-08-17T05:39:16.600Z,19.66
2022-08-17T05:41:48.105Z,19.67
2022-08-17T05:44:17.483Z,19.70
2022-08-17T05:46:51.490Z,19.79
2022-08-17T05:49:27.350Z,19.85
2022-08-17T05:52:22.447Z,19.93
2022-08-17T05:55:06.878Z,19.92
2022-08-17T05:57:49.702Z,19.92
2022-08-17T06:00:26.292Z,19.91
2022-08-17T06:03:20.206Z,19.93
2022-08-17T06:06:02.995Z,19.97
2022-08-17T06:08:42.144Z,19.99
2022-08-17T06:11:24.221Z,20.02
2022-08-17T06:14:23.138Z,20.03
2022-08-17T06:16:57.672Z,20.01
2022-08-17T06:19:34.731Z,20.04
2022-08-17T06:22:05.751Z,19.99
2022-08-17T06:24:38.981Z,20.00
2022-08-17T06:27:14.382Z,20.00
2022-08-17T06:29:52.538Z,20.05
2022-08-17T06:32:21.269Z,20.10
2022-08-17T06:34:51.512Z,20.14
2022-08-17T06:37:39.600Z,20.21
2022-08-17T06:40:38.137Z,20.25
2022-08-17T06:43:26.146Z,20.25
2022-08-17T06:46:04.124Z,20.31
2022-08-17T06:48:42.702Z,20.33
2022-08-17T06:51:23.968Z,20.38
2022-08-17T06:54:00.089Z,20.42
2022-08-17T06:56:53.694Z,20.42
2022-08-17T06:59:30.429Z,20.45
2022-08-17T07:02:28.913Z,20.50
2022-08-17T07:05:01.734Z,20.59
2022-08-17T07:07:50.601Z,20.65
2022-08-17T07:10:21.215Z,20.74
2022-08-17T07:12:52.187Z,20.84
2022-08-17T07:15:26.372Z,20.87
2022-08-17T07:17:55.857Z,20.93
2022-08-17T07:20:24.267Z,20.99
2022-08-17T07:23:01.881Z,21.03
2022-08-17T07:25:31.388Z,21.09
2022-08-17T07:28:04.238Z,21.13
2022-08-17T07:30:47.613Z,21.18
2022-08-17T07:33:23.735Z,21.24
2022-08-17T07:35:52.798Z,21.32
2022-08-17T07:38:27.626Z,21.41
2022-08-17T07:41:06.161Z,21.43
2022-08-17T07:43:37.516Z,21.49
2022-08-17T07:46:34.364Z,21.59
2022-08-17T07:49:26.030Z,21.65
2022-08-17T07:52:24.319Z,21.77
2022-08-17T07:54:56.122Z,21.79
2022-08-17T07:57:37.040Z,21.84
2022-08-17T08:00:31.737Z,21.84
2022-08-17T08:03:22.930Z,21.90
2022-08-17T08:06:01.254Z,21.97
2022-08-17T08:08:34.650Z,21.99
2022-08-17T08:11:09.233Z,22.02
2022-08-17T08:13:43.804Z,22.03
2022-08-17T08:16:29.635Z,22.17
2022-08-17T08:19:00.608Z,22.23
2022-08-17T08:21:48.275Z,22.37
2022-08-17T08:24:41.585Z,22.30
2022-08-17T08:27:22.561Z,22.37
2022-08-17T08:29:58.822Z,22.34
2022-08-17T08:32:45.507Z,22.32
2022-08-17T08:35:29.578Z,22.37
2022-08-17T08:38:07.431Z,22.37
2022-08-17T08:40:53.616Z,22.38
2022-08-17T08:43:36.235Z,22.39
2022-08-17T08:46:19.726Z,22.40
2022-08-17T08:49:59.557Z,22.43
2022-08-17T08:52:46.728Z,22.46
2022-08-17T08:55:22.716Z,22.51
2022-08-17T08:57:58.812Z,22.56
2022-08-17T09:00:29.914Z,22.58
2022-08-17T09:03:36.754Z,22.60
2022-08-17T09:06:39.306Z,22.62
2022-08-17T09:09:20.696Z,22.62
2022-08-17T09:12:01.119Z,22.64
2022-08-17T09:14:47.202Z,22.66
2022-08-17T09:17:22.696Z,22.68
2022-08-17T09:19:57.699Z,22.69
2022-08-17T09:22:34.659Z,22.73
2022-08-17T09:25:10.654Z,22.73
2022-08-17T09:28:00.686Z,22.73
2022-08-17T09:30:40.795Z,22.74
2022-08-17T09:33:13.302Z,22.75
2022-08-17T09:35:48.865Z,22.76
2022-08-17T09:38:27.068Z,22.83
2022-08-17T09:41:09.275Z,22.89
2022-08-17T09:43:44.763Z,22.86
2022-08-17T09:46:20.924Z,22.87
2022-08-17T09:48:58.124Z,22.90
2022-08-17T09:51:34.365Z,22.91
2022-08-17T09:54:21.338Z,22.91
2022-08-17T09:57:27.893Z,22.99
2022-08-17T10:00:16.874Z,22.98
2022-08-17T10:03:25.610Z,22.95
2022-08-17T10:06:06.546Z,22.95
2022-08-17T10:08:52.547Z,22.98
2022-08-17T10:11:52.629Z,22.99
2022-08-17T10:14:37.681Z,23.01
2022-08-17T10:17:20.385Z,23.10
2022-08-17T10:19:59.210Z,23.14
2022-08-17T10:22:55.769Z,23.24
2022-08-17T10:25:54.576Z,23.24
2022-08-17T10:28:30.268Z,23.21
2022-08-17T10:31:32.962Z,23.18
2022-08-17T10:34:26.138Z,23.17
2022-08-17T10:37:05.623Z,23.19
2022-08-17T10:39:52.022Z,23.21
2022-08-17T10:42:30.758Z,23.23
2022-08-17T10:45:07.763Z,23.24
2022-08-17T10:48:04.694Z,23.26
2022-08-17T10:51:08.656Z,23.30
2022-08-17T10:54:01.729Z,23.30
2022-08-17T10:56:51.321Z,23.31
2022-08-17T10:59:51.843Z,23.31
2022-08-17T11:02:28.095Z,23.31
2022-08-17T11:05:26.699Z,23.31
2022-08-17T11:08:20.512Z,23.36
2022-08-17T11:11:36.669Z,23.38
2022-08-17T11:14:47.151Z,23.49
2022-08-17T11:17:41.507Z,23.58
2022-08-17T11:21:12.774Z,23.53
2022-08-17T11:23:58.525Z,23.51
2022-08-17T11:26:29.861Z,23.43
2022-08-17T11:29:01.790Z,23.38
2022-08-17T11:31:41.098Z,23.31
2022-08-17T11:34:20.233Z,23.26
2022-08-17T11:37:22.125Z,23.18
2022-08-17T11:40:12.736Z,23.11
2022-08-17T11:42:59.345Z,23.09
2022-08-17T11:45:57.981Z,23.13
2022-08-17T11:48:56.262Z,23.13
2022-08-17T11:51:58.400Z,23.16
2022-08-17T11:54:47.879Z,23.11
2022-08-17T11:58:01.530Z,23.11
2022-08-17T12:00:58.683Z,23.16
2022-08-17T12:03:55.653Z,23.17
2022-08-17T12:06:42.944Z,23.17
2022-08-17T12:09:18.608Z,23.24
2022-08-17T12:12:12.594Z,23.18
2022-08-17T12:17:40.531Z,23.17
2022-08-17T12:20:19.658Z,23.21
2022-08-17T12:22:56.400Z,23.32
2022-08-17T12:25:33.118Z,23.47
2022-08-17T12:28:06.523Z,23.50
2022-08-17T12:30:37.923Z,23.54
2022-08-17T12:33:25.419Z,23.58
2022-08-17T12:36:04.155Z,23.60
2022-08-17T12:38:36.124Z,23.61
2022-08-17T12:41:22.450Z,23.65
2022-08-17T12:44:01.996Z,23.71
2022-08-17T12:46:35.829Z,23.73
2022-08-17T12:49:24.001Z,23.74
2022-08-17T12:52:04.732Z,23.77
2022-08-17T12:54:49.264Z,23.81
2022-08-17T12:57:21.184Z,23.84
2022-08-17T12:59:58.417Z,23.90
2022-08-17T13:02:40.475Z,23.91
2022-08-17T13:05:28.320Z,23.97
2022-08-17T13:08:00.946Z,24.10
2022-08-17T13:10:33.247Z,24.22
2022-08-17T13:13:05.801Z,24.41
2022-08-17T13:15:45.931Z,24.53
2022-08-17T13:18:50.952Z,24.64
2022-08-17T13:21:28.036Z,24.82
2022-08-17T13:24:02.475Z,25.16
2022-08-17T13:26:35.672Z,25.37
2022-08-17T13:29:08.798Z,25.65
2022-08-17T13:31:51.787Z,25.76
2022-08-17T13:34:59.646Z,25.98
2022-08-17T13:37:34.154Z,26.34
2022-08-17T13:40:31.629Z,26.74
2022-08-17T13:43:03.343Z,27.07
2022-08-17T13:45:51.060Z,27.23
2022-08-17T13:48:29.708Z,27.44
2022-08-17T13:51:23.682Z,27.76
2022-08-17T13:54:07.476Z,28.00
2022-08-17T13:56:48.062Z,28.09
2022-08-17T13:59:52.910Z,28.16
2022-08-17T14:02:19.567Z,28.31
2022-08-17T14:04:49.428Z,28.45
2022-08-17T14:07:32.363Z,28.76
2022-08-17T14:10:04.996Z,28.95
2022-08-17T14:12:39.708Z,28.94
2022-08-17T14:15:10.596Z,28.92
2022-08-17T14:17:39.682Z,28.94
2022-08-17T14:20:12.388Z,29.03
2022-08-17T14:22:44.853Z,29.05
2022-08-17T14:25:15.668Z,29.13
2022-08-17T14:27:52.178Z,29.29
2022-08-17T14:30:25.209Z,29.30
2022-08-17T14:32:54.558Z,29.35
2022-08-17T14:35:27.365Z,29.50
2022-08-17T14:37:55.941Z,29.51
2022-08-17T14:40:25.686Z,29.43
2022-08-17T14:42:57.827Z,29.45
2022-08-17T14:45:31.812Z,29.44
2022-08-17T14:48:01.878Z,29.52
2022-08-17T14:50:30.347Z,29.65
2022-08-17T14:53:01.608Z,29.75
2022-08-17T14:55:30.997Z,29.78
2022-08-17T14:58:01.295Z,29.75
2022-08-17T15:00:29.877Z,29.76
2022-08-17T15:03:00.289Z,29.75
2022-08-17T15:05:32.459Z,29.67
2022-08-17T15:08:01.917Z,29.61
2022-08-17T15:10:32.602Z,29.56
2022-08-17T15:13:02.535Z,29.52
2022-08-17T15:15:31.502Z,29.47
2022-08-17T15:18:01.104Z,29.47
2022-08-17T15:20:31.140Z,29.56
2022-08-17T15:22:59.865Z,29.53
2022-08-17T15:25:31.881Z,29.50
2022-08-17T15:28:02.637Z,29.54
2022-08-17T15:30:31.767Z,29.59
2022-08-17T15:33:03.931Z,29.76
2022-08-17T15:35:34.225Z,29.87
2022-08-17T15:38:12.032Z,30.04
2022-08-17T15:40:44.038Z,30.17
2022-08-17T15:43:16.541Z,30.25
2022-08-17T15:45:58.620Z,30.30
2022-08-17T15:48:41.903Z,30.35
2022-08-17T15:51:14.164Z,30.32
2022-08-17T15:53:45.420Z,30.32
2022-08-17T15:56:14.956Z,30.30
2022-08-17T15:58:47.443Z,30.28
2022-08-17T16:01:35.150Z,30.18
2022-08-17T16:04:07.124Z,30.07
2022-08-17T16:06:55.241Z,30.06
2022-08-17T16:09:23.624Z,29.93
2022-08-17T16:11:55.198Z,29.90
2022-08-17T16:14:32.301Z,29.83
2022-08-17T16:17:04.352Z,29.80
2022-08-17T16:19:34.359Z,29.78
2022-08-17T16:22:03.565Z,29.73
2022-08-17T16:24:32.363Z,29.69
2022-08-17T16:27:01.323Z,29.60
2022-08-17T16:29:31.373Z,29.53
2022-08-17T16:32:08.653Z,29.51
2022-08-17T16:34:37.061Z,29.48
2022-08-17T16:37:05.878Z,29.46
2022-08-17T16:39:34.345Z,29.48
2022-08-17T16:42:03.007Z,29.48
2022-08-17T16:44:33.459Z,29.42
2022-08-17T16:47:01.945Z,29.36
2022-08-17T16:49:36.670Z,29.29
2022-08-17T16:52:11.022Z,29.21
2022-08-17T16:54:41.887Z,29.22
2022-08-17T16:57:10.947Z,29.16
2022-08-17T16:59:45.016Z,29.08
2022-08-17T17:02:22.340Z,28.98
2022-08-17T17:04:56.860Z,28.94
2022-08-17T17:07:45.326Z,28.86
2022-08-17T17:10:17.950Z,28.85
2022-08-17T17:13:01.131Z,28.79
2022-08-17T17:15:51.723Z,28.70
2022-08-17T17:18:23.557Z,28.65
2022-08-17T17:20:57.936Z,28.60
2022-08-17T17:23:43.521Z,28.57
2022-08-17T17:26:35.490Z,28.48
2022-08-17T17:29:21.507Z,28.43
2022-08-17T17:32:03.116Z,28.34
2022-08-17T17:34:34.417Z,28.32
2022-08-17T17:37:09.160Z,28.24
2022-08-17T17:39:44.132Z,28.18
2022-08-17T17:42:20.088Z,28.16
2022-08-17T17:44:54.282Z,28.12
2022-08-17T17:47:24.344Z,28.04
2022-08-17T17:49:52.740Z,28.01
2022-08-17T17:52:28.409Z,27.92
2022-08-17T17:55:19.784Z,27.86
2022-08-17T17:58:01.938Z,27.81
2022-08-17T18:00:38.878Z,27.75
2022-08-17T18:03:27.640Z,27.72
2022-08-17T18:06:21.280Z,27.65
2022-08-17T18:09:04.044Z,27.59
2022-08-17T18:12:13.484Z,27.49
2022-08-17T18:15:05.489Z,27.45
2022-08-17T18:17:33.897Z,27.39
2022-08-17T18:20:04.634Z,27.32
2022-08-17T18:22:32.944Z,27.27
2022-08-17T18:25:01.478Z,27.19
2022-08-17T18:27:37.903Z,27.15
2022-08-17T18:30:29.005Z,27.06
2022-08-17T18:33:23.126Z,26.99
2022-08-17T18:35:59.259Z,26.95
2022-08-17T18:38:33.824Z,26.90
2022-08-17T18:41:08.576Z,26.83
2022-08-17T18:43:53.325Z,26.76
2022-08-17T18:46:33.184Z,26.70
2022-08-17T18:49:04.674Z,26.65
2022-08-17T18:51:41.455Z,26.59
2022-08-17T18:54:22.257Z,26.52
2022-08-17T18:56:59.331Z,26.49
2022-08-17T18:59:34.624Z,26.43
2022-08-17T19:02:43.447Z,26.39
2022-08-17T19:05:31.840Z,26.38
2022-08-17T19:10:59.253Z,26.30
2022-08-17T19:13:36.566Z,26.23
2022-08-17T19:16:14.930Z,26.16
2022-08-17T19:18:50.912Z,26.05
2022-08-17T19:21:28.301Z,25.91
2022-08-17T19:24:04.432Z,25.92
2022-08-17T19:26:54.392Z,25.89
2022-08-17T19:29:31.258Z,25.84
2022-08-17T19:32:03.109Z,25.79
2022-08-17T19:34:35.780Z,25.75
2022-08-17T19:37:12.580Z,25.73
2022-08-17T19:39:50.884Z,25.73
2022-08-17T19:42:33.884Z,25.71
2022-08-17T19:45:13.187Z,25.72
2022-08-17T19:47:55.080Z,25.68
2022-08-17T19:50:38.470Z,25.62
2022-08-17T19:53:19.200Z,25.60
2022-08-17T19:55:58.853Z,25.56
2022-08-17T19:58:46.861Z,25.48
2022-08-17T20:01:21.959Z,25.42
2022-08-17T20:04:00.041Z,25.34
2022-08-17T20:06:34.509Z,25.31
2022-08-17T20:09:15.241Z,25.24
2022-08-17T20:11:49.220Z,25.20
2022-08-17T20:14:22.319Z,25.14
2022-08-17T20:16:51.396Z,25.12
2022-08-17T20:19:28.048Z,25.06
2022-08-17T20:22:02.936Z,25.06
2022-08-17T20:24:40.423Z,25.03
2022-08-17T20:27:16.523Z,25.02
2022-08-17T20:30:10.716Z,24.92
2022-08-17T20:32:55.180Z,24.89
2022-08-17T20:35:27.311Z,24.83
2022-08-17T20:37:59.738Z,24.82
2022-08-17T20:40:34.260Z,24.77
2022-08-17T20:44:02.901Z,24.72
2022-08-17T20:46:58.109Z,24.72
2022-08-17T20:49:40.248Z,24.68
2022-08-17T20:52:15.573Z,24.65
2022-08-17T20:54:49.521Z,24.66
2022-08-17T20:57:48.486Z,24.58
2022-08-17T21:00:44.907Z,24.55
2022-08-17T21:03:50.242Z,24.49
2022-08-17T21:06:25.344Z,24.48
2022-08-17T21:08:58.910Z,24.47
2022-08-17T21:12:04.601Z,24.37
2022-08-17T21:14:59.795Z,24.28
2022-08-17T21:17:42.993Z,24.24
2022-08-17T21:20:32.587Z,24.24
2022-08-17T21:23:31.294Z,24.25
2022-08-17T21:26:18.395Z,24.28
2022-08-17T21:29:32.465Z,24.27
2022-08-17T21:32:24.266Z,24.23
2022-08-17T21:35:30.073Z,24.20
2022-08-17T21:38:04.934Z,24.14
2022-08-17T21:40:36.298Z,24.16
2022-08-17T21:43:23.532Z,24.13
2022-08-17T21:46:05.167Z,24.08
2022-08-17T21:48:43.820Z,24.06
2022-08-17T21:51:19.454Z,24.06
2022-08-17T21:53:52.019Z,23.94
2022-08-17T21:56:27.698Z,23.89
2022-08-17T21:59:00.403Z,23.86
2022-08-17T22:01:34.776Z,23.81
2022-08-17T22:04:19.729Z,23.78
2022-08-17T22:06:57.419Z,23.74
2022-08-17T22:09:29.946Z,23.71
2022-08-17T22:12:09.043Z,23.58
2022-08-17T22:14:52.754Z,23.57
2022-08-17T22:17:25.266Z,23.52
2022-08-17T22:19:59.702Z,23.42
2022-08-17T22:22:56.469Z,23.36
2022-08-17T22:25:26.842Z,23.36
2022-08-17T22:27:58.458Z,23.34
2022-08-17T22:30:36.278Z,23.16
2022-08-17T22:36:22.062Z,22.53
2022-08-17T22:38:55.241Z,22.35
2022-08-17T22:41:41.169Z,22.21
2022-08-17T22:44:24.191Z,22.06
2022-08-17T22:46:59.002Z,21.99
2022-08-17T22:49:31.954Z,22.00
2022-08-17T22:52:08.856Z,22.00
2022-08-17T22:54:55.968Z,22.02
2022-08-17T22:57:51.318Z,22.00
2022-08-17T23:00:34.400Z,22.09
2022-08-17T23:03:18.599Z,22.11
2022-08-17T23:05:49.900Z,22.10
2022-08-17T23:08:21.260Z,22.06
2022-08-17T23:10:51.297Z,21.96
2022-08-17T23:13:21.219Z,21.83
2022-08-17T23:15:51.295Z,21.76
2022-08-17T23:18:19.884Z,21.73
2022-08-17T23:20:48.339Z,21.64
2022-08-17T23:23:20.638Z,21.58
2022-08-17T23:25:54.328Z,21.57
2022-08-17T23:28:22.692Z,21.53
2022-08-17T23:30:51.140Z,21.48
2022-08-17T23:33:27.489Z,21.35
2022-08-17T23:35:55.780Z,21.28
2022-08-17T23:38:26.964Z,21.28
2022-08-17T23:41:00.935Z,21.24
2022-08-17T23:43:31.396Z,21.24
2022-08-17T23:46:03.556Z,21.29
2022-08-17T23:48:35.783Z,21.37
2022-08-17T23:51:10.681Z,21.43
2022-08-17T23:53:43.982Z,21.46
2022-08-17T23:56:13.990Z,21.46
2022-08-17T23:58:44.665Z,21.39
